Time;durP1;ratioP1;P1;durP2;ratioP2;P2;SDS_P1;SDS_P2;PMS_P1;PMS_P2;Temp;Humidity;BMP_temperature;BMP_pressure;BME280_temperature;BME280_humidity;BME280_pressure;Samples;Min_cycle;Max_cycle;Signal;HPM_P1;HPM_P2
2023/02/27 00:01:56;;;;;;;6.20;2.80;;;;;;;2.39;94.19;98521.27;105955;1294;24233;-77
2023/02/27 00:04:38;;;;;;;5.00;2.50;;;;;;;2.36;94.44;98532.05;103940;1294;2844998;-77
2023/02/27 00:07:16;;;;;;;7.50;2.90;;;;;;;2.34;93.53;98532.05;106001;1295;25319;-77
2023/02/27 00:09:54;;;;;;;5.50;2.80;;;;;;;2.27;93.70;98537.17;105765;1295;26129;-77
2023/02/27 00:12:36;;;;;;;6.70;3.00;;;;;;;2.23;93.76;98532.40;106015;1292;25601;-78
2023/02/27 00:15:22;;;;;;;4.60;2.40;;;;;;;2.20;93.82;98533.94;108099;1286;22577;-78
2023/02/27 00:18:06;;;;;;;11.00;2.90;;;;;;;2.16;93.47;98542.31;107009;1276;22556;-77
2023/02/27 00:20:43;;;;;;;5.30;3.20;;;;;;;2.15;93.69;98543.69;105848;1293;22531;-77
2023/02/27 00:23:26;;;;;;;5.70;2.60;;;;;;;2.14;94.24;98539.41;105908;1295;22683;-77
2023/02/27 00:26:10;;;;;;;5.50;2.70;;;;;;;2.14;94.35;98527.10;106147;1289;22782;-78
2023/02/27 00:28:56;;;;;;;5.50;2.90;;;;;;;2.15;95.11;98532.23;106460;1295;22562;-78
2023/02/27 00:31:44;;;;;;;5.50;3.10;;;;;;;2.21;95.25;98530.52;106394;1295;22571;-77
2023/02/27 00:34:28;;;;;;;5.40;2.40;;;;;;;2.23;95.49;98532.05;106851;1286;22551;-77
2023/02/27 00:37:33;;;;;;;;;;;;;;;;;;;;;
2023/02/27 00:40:34;;;;;;;5.60;2.70;;;;;;;2.31;95.44;98536.50;106056;1288;22551;-77
2023/02/27 00:43:23;;;;;;;5.50;2.50;;;;;;;2.34;95.48;98537.86;105922;1295;22545;-77
2023/02/27 00:46:15;;;;;;;;;;;;;;;;;;;;;
2023/02/27 00:49:07;;;;;;;5.10;2.50;;;;;;;2.39;95.18;98527.60;105976;1293;25500;-77
2023/02/27 00:51:57;;;;;;;5.60;3.20;;;;;;;2.38;95.40;98533.40;105735;1294;24252;-77
2023/02/27 00:54:42;;;;;;;9.90;2.80;;;;;;;2.41;95.38;98532.04;106012;1295;24612;-79
2023/02/27 00:57:22;;;;;;;8.20;3.10;;;;;;;2.42;95.36;98527.77;105997;1292;22636;-77
2023/02/27 00:59:59;;;;;;;9.20;4.10;;;;;;;2.40;95.00;98526.22;106042;1295;22538;-77
2023/02/27 01:02:47;;;;;;;4.80;3.00;;;;;;;2.35;94.98;98520.25;106091;1295;24296;-77
2023/02/27 01:05:35;;;;;;;8.30;3.40;;;;;;;2.30;94.87;98522.64;105765;1290;25335;-76
2023/02/27 01:08:31;;;;;;;6.40;3.10;;;;;;;2.28;94.58;98520.42;106023;1292;25302;-77
2023/02/27 01:11:13;;;;;;;5.30;3.00;;;;;;;2.25;94.33;98523.33;105768;1295;24214;-77
2023/02/27 01:13:55;;;;;;;5.30;2.80;;;;;;;2.18;94.60;98520.45;105911;1292;24134;-77
2023/02/27 01:16:33;;;;;;;6.20;2.70;;;;;;;2.17;94.81;98514.63;105859;1295;23795;-77
2023/02/27 01:19:09;;;;;;;5.40;3.00;;;;;;;2.16;95.15;98508.29;105905;1290;25433;-77
2023/02/27 01:21:43;;;;;;;11.80;3.00;;;;;;;2.14;94.92;98512.73;105929;1292;22556;-77
2023/02/27 01:24:21;;;;;;;5.50;2.70;;;;;;;2.12;94.73;98512.56;105849;1295;24310;-77
2023/02/27 01:26:55;;;;;;;7.40;2.90;;;;;;;2.10;94.69;98509.50;105888;1295;24508;-77
2023/02/27 01:29:29;;;;;;;4.70;2.60;;;;;;;2.12;95.35;98510.01;105885;1295;24045;-77
2023/02/27 01:32:05;;;;;;;3.80;2.10;;;;;;;2.14;95.37;98509.15;105709;1295;22556;-77
2023/02/27 01:34:33;;;;;;;5.20;2.60;;;;;;;2.16;95.24;98511.37;105891;1295;26668;-77
2023/02/27 01:37:08;;;;;;;6.20;2.20;;;;;;;2.20;95.24;98516.33;105892;1295;22749;-77
2023/02/27 01:39:38;;;;;;;5.80;2.50;;;;;;;2.24;95.16;98516.66;105874;1289;23050;-77
2023/02/27 01:42:21;;;;;;;4.00;2.00;;;;;;;2.23;95.21;98505.88;105933;1292;22555;-77
2023/02/27 01:45:14;;;;;;;5.40;2.10;;;;;;;2.28;95.40;98502.98;105681;1295;22546;-77
2023/02/27 01:48:02;;;;;;;3.70;2.00;;;;;;;2.29;95.06;98505.55;105926;1295;22688;-77
2023/02/27 01:50:39;;;;;;;5.90;2.60;;;;;;;2.30;95.28;98509.98;105835;1295;23376;-77
2023/02/27 01:53:11;;;;;;;4.00;2.20;;;;;;;2.30;95.08;98512.89;106002;1295;22656;-77
2023/02/27 01:55:45;;;;;;;4.90;2.30;;;;;;;2.31;95.17;98524.36;105816;1295;25349;-77
2023/02/27 01:58:15;;;;;;;;;;;;;;;2.34;95.12;98529.48;106000;1295;22532;-77
2023/02/27 02:00:47;;;;;;;4.60;1.90;;;;;;;2.32;95.31;98534.44;105774;1295;25546;-77
2023/02/27 02:03:22;;;;;;;4.90;2.00;;;;;;;2.33;95.16;98532.90;105759;1295;22674;-77
2023/02/27 02:05:55;;;;;;;6.10;2.10;;;;;;;2.36;95.21;98543.16;106000;1295;22983;-77
2023/02/27 02:08:30;;;;;;;3.70;1.90;;;;;;;2.40;95.19;98553.59;105932;1295;25674;-77
2023/02/27 02:10:59;;;;;;;4.60;2.00;;;;;;;2.42;94.96;98551.88;106533;1295;25750;-77
2023/02/27 02:13:31;;;;;;;5.90;2.20;;;;;;;2.44;94.91;98555.63;105928;1294;22584;-77
2023/02/27 02:16:14;;;;;;;5.00;2.10;;;;;;;2.46;95.18;98559.58;105745;1295;22771;-81
2023/02/27 02:18:53;;;;;;;5.40;2.10;;;;;;;2.49;95.10;98562.48;105854;1295;25358;-77
2023/02/27 02:22:13;;;;;;;6.80;2.50;;;;;;;2.53;95.22;98560.94;105686;1295;22542;-77
2023/02/27 02:25:05;;;;;;;4.50;2.20;;;;;;;2.58;95.15;98569.98;105839;1294;23953;-77
2023/02/27 02:27:49;;;;;;;3.80;2.20;;;;;;;2.61;95.07;98578.54;105980;1295;22561;-77
2023/02/27 02:30:33;;;;;;;4.40;2.50;;;;;;;2.65;94.91;98576.83;105937;1295;22784;-77
2023/02/27 02:33:29;;;;;;;4.20;2.20;;;;;;;2.66;94.84;98578.71;107807;1295;23188;-77
2023/02/27 02:36:13;;;;;;;4.20;2.10;;;;;;;2.65;94.64;98580.08;105759;1294;24518;-77
2023/02/27 02:38:59;;;;;;;5.00;2.10;;;;;;;2.64;94.49;98583.50;106020;1295;22543;-77
2023/02/27 02:41:37;;;;;;;;;;;;;;;2.63;94.54;98590.34;105995;1295;24397;-76
2023/02/27 02:44:41;;;;;;;4.50;2.40;;;;;;;2.63;94.77;98587.45;106052;1285;22674;-77
2023/02/27 02:47:43;;;;;;;4.60;2.20;;;;;;;2.61;94.67;98594.27;105885;1295;22721;-77
2023/02/27 02:50:34;;;;;;;3.50;2.00;;;;;;;2.61;94.86;98592.40;105886;1295;23518;-77
2023/02/27 02:53:28;;;;;;;7.30;3.50;;;;;;;2.61;95.16;98589.48;108923;1295;22241;-77
2023/02/27 02:56:32;;;;;;;4.80;2.50;;;;;;;2.59;95.29;98587.77;108853;1295;22344;-77
2023/02/27 02:59:17;;;;;;;5.10;2.90;;;;;;;2.59;95.03;98590.85;108889;1295;22179;-78
2023/02/27 03:02:04;;;;;;;5.50;2.50;;;;;;;2.57;94.56;98591.20;108888;1295;22182;-77
2023/02/27 03:04:38;;;;;;;7.00;2.90;;;;;;;2.55;94.83;98592.57;107669;1294;24288;-77
2023/02/27 03:07:21;;;;;;;5.90;3.00;;;;;;;2.54;94.98;98589.84;105963;1294;24921;-78
2023/02/27 03:09:54;;;;;;;;;;;;;;;2.55;95.51;98599.59;105939;1294;25398;-77
2023/02/27 03:12:30;;;;;;;7.40;2.60;;;;;;;2.56;95.54;98605.40;105780;1293;22620;-77
2023/02/27 03:15:15;;;;;;;4.60;2.60;;;;;;;2.57;95.71;98610.87;105812;1295;23809;-77
2023/02/27 03:18:04;;;;;;;5.50;2.70;;;;;;;2.58;95.90;98611.73;105931;1287;22581;-77
2023/02/27 03:20:48;;;;;;;5.40;3.30;;;;;;;2.56;95.27;98614.30;106022;1294;22540;-77
2023/02/27 03:23:22;;;;;;;5.80;3.00;;;;;;;2.56;95.71;98617.55;105710;1294;22571;-77
2023/02/27 03:25:55;;;;;;;5.40;2.80;;;;;;;2.57;95.82;98617.73;105923;1294;23395;-77
2023/02/27 03:28:37;;;;;;;5.50;3.10;;;;;;;2.57;95.34;98619.94;106389;1294;25375;-77
2023/02/27 03:31:36;;;;;;;6.50;3.30;;;;;;;2.56;95.38;98621.83;105790;1295;22738;-77
2023/02/27 03:34:33;;;;;;;6.60;3.90;;;;;;;2.57;94.82;98626.79;105926;1294;22566;-76
2023/02/27 03:37:20;;;;;;;8.00;3.20;;;;;;;2.54;95.17;98631.92;105784;1294;22722;-77
2023/02/27 03:40:28;;;;;;;6.00;3.00;;;;;;;2.54;95.13;98639.79;107566;1294;22775;-77
2023/02/27 03:43:37;;;;;;;6.30;3.30;;;;;;;2.55;95.35;98641.83;106001;1294;22666;-76
2023/02/27 03:46:13;;;;;;;10.20;3.80;;;;;;;2.61;95.68;98650.56;105937;1294;23319;-77
2023/02/27 03:48:46;;;;;;;9.70;4.60;;;;;;;2.65;95.51;98648.17;105964;1286;22541;-77
2023/02/27 03:51:27;;;;;;;10.60;4.40;;;;;;;2.69;95.78;98649.02;106183;1294;22577;-77
2023/02/27 03:54:40;;;;;;;8.90;3.50;;;;;;;2.73;95.63;98646.63;108821;1295;25378;-76
2023/02/27 03:57:19;;;;;;;6.60;3.50;;;;;;;2.75;95.42;98647.48;106152;1301;22572;-78
2023/02/27 03:59:59;;;;;;;10.80;5.00;;;;;;;2.74;95.47;98649.36;106740;1294;22576;-78
2023/02/27 04:02:50;;;;;;;10.00;4.00;;;;;;;2.77;95.46;98650.89;106352;1290;23288;-78
2023/02/27 04:05:33;;;;;;;9.40;4.50;;;;;;;2.75;95.38;98658.27;108843;1294;23000;-78
2023/02/27 04:08:33;;;;;;;9.80;4.10;;;;;;;2.73;95.65;98663.73;105929;1295;24296;-78
2023/02/27 04:11:40;;;;;;;10.30;4.60;;;;;;;2.73;95.38;98667.33;106005;1294;25372;-77
2023/02/27 04:15:01;;;;;;;8.70;4.00;;;;;;;2.69;95.43;98671.96;105965;1293;22686;-77
2023/02/27 04:18:14;;;;;;;15.60;4.70;;;;;;;2.67;96.14;98678.98;105271;1296;25322;-77
2023/02/27 04:21:27;;;;;;;9.10;4.50;;;;;;;2.66;95.45;98682.23;105790;1294;22551;-78
2023/02/27 04:25:05;;;;;;;;;;;;;;;;;;;;;
2023/02/27 04:28:29;;;;;;;7.40;3.90;;;;;;;2.56;96.00;98686.33;105189;1295;22781;-78
2023/02/27 04:31:34;;;;;;;10.50;4.70;;;;;;;2.56;95.76;98693.67;105958;1271;22564;-77
2023/02/27 04:34:33;;;;;;;9.60;5.00;;;;;;;2.51;95.95;98701.38;105976;1294;22559;-77
2023/02/27 04:37:31;;;;;;;5.80;3.10;;;;;;;2.48;96.13;98707.20;105923;1295;22632;-77
2023/02/27 04:40:33;;;;;;;9.20;3.70;;;;;;;2.44;96.57;98713.34;105836;1294;22542;-77
2023/02/27 04:43:26;;;;;;;6.50;3.10;;;;;;;2.39;96.98;98719.33;105959;1294;22542;-77
2023/02/27 04:46:18;;;;;;;9.00;3.60;;;;;;;2.41;96.26;98728.90;105985;1290;24383;-78
2023/02/27 04:49:33;;;;;;;7.50;3.20;;;;;;;2.38;97.03;98730.80;105938;1292;25325;-78
2023/02/27 04:52:29;;;;;;;7.30;2.60;;;;;;;2.36;98.25;98732.33;105930;1294;25384;-78
2023/02/27 04:55:43;;;;;;;3.10;2.00;;;;;;;2.37;98.02;98732.66;106007;1292;22564;-78
2023/02/27 04:58:29;;;;;;;5.40;2.70;;;;;;;2.37;97.39;98738.47;105945;1295;23862;-78
2023/02/27 05:01:15;;;;;;;5.20;2.40;;;;;;;2.37;97.47;98744.64;105814;1295;25489;-78
2023/02/27 05:04:01;;;;;;;3.80;1.90;;;;;;;2.36;97.43;98752.50;105925;1287;22693;-78
2023/02/27 05:06:48;;;;;;;5.10;2.40;;;;;;;2.37;97.31;98756.95;105976;1294;22634;-77
2023/02/27 05:09:23;;;;;;;7.40;2.50;;;;;;;2.36;97.39;98753.52;105781;1295;22558;-78
2023/02/27 05:12:20;;;;;;;6.30;2.40;;;;;;;2.39;96.86;98755.41;105722;1290;22570;-77
2023/02/27 05:15:00;;;;;;;5.20;2.40;;;;;;;2.41;97.30;98760.73;105807;1289;22545;-77
2023/02/27 05:17:44;;;;;;;5.20;2.90;;;;;;;2.45;97.00;98765.17;105829;1294;24249;-78
2023/02/27 05:20:22;;;;;;;4.70;2.50;;;;;;;2.49;97.57;98774.25;105937;1294;22498;-77
2023/02/27 05:23:16;;;;;;;7.80;2.80;;;;;;;2.51;97.52;98779.73;106803;1294;22501;-78
2023/02/27 05:25:53;;;;;;;;;;;;;;;2.54;97.32;98783.33;105919;1286;22598;-78
2023/02/27 05:28:37;;;;;;;6.80;3.00;;;;;;;2.56;97.42;98790.17;105890;1295;22539;-78
2023/02/27 05:31:27;;;;;;;11.10;3.80;;;;;;;2.60;97.22;98790.70;105900;1294;24453;-77
2023/02/27 05:34:28;;;;;;;16.70;3.60;;;;;;;2.64;97.26;98789.16;105901;1290;22676;-78
2023/02/27 05:37:24;;;;;;;19.80;5.30;;;;;;;2.68;97.44;98791.40;105855;1294;22545;-78
2023/02/27 05:40:07;;;;;;;14.20;4.40;;;;;;;2.73;97.32;98796.54;105693;1295;22710;-78
2023/02/27 05:42:46;;;;;;;9.70;4.40;;;;;;;2.78;97.54;98806.64;106098;1287;22652;-78
2023/02/27 05:45:22;;;;;;;9.30;4.20;;;;;;;2.81;97.52;98813.50;108918;1295;22208;-78
2023/02/27 05:48:08;;;;;;;12.30;5.30;;;;;;;2.85;97.07;98821.88;106016;1294;22549;-78
2023/02/27 05:50:39;;;;;;;9.60;4.70;;;;;;;2.86;97.00;98821.71;105956;1286;22684;-77
2023/02/27 05:53:12;;;;;;;15.50;5.80;;;;;;;2.86;97.00;98825.14;105981;1294;25532;-78
2023/02/27 05:56:04;;;;;;;11.30;5.20;;;;;;;2.87;96.67;98829.42;105787;1294;24271;-78
2023/02/27 05:58:42;;;;;;;13.50;5.40;;;;;;;2.85;96.80;98829.59;106036;1283;23814;-77
2023/02/27 06:01:13;;;;;;;12.40;4.70;;;;;;;2.83;96.89;98829.41;108965;1295;22487;-78
2023/02/27 06:03:42;;;;;;;15.20;5.50;;;;;;;2.81;96.69;98826.85;105965;1294;22583;-78
2023/02/27 06:06:15;;;;;;;10.90;5.50;;;;;;;2.79;96.34;98830.77;105978;1295;25309;-79
2023/02/27 06:08:44;;;;;;;14.70;6.50;;;;;;;2.78;96.50;98834.54;106009;1285;22732;-78
2023/02/27 06:11:13;;;;;;;16.60;6.80;;;;;;;2.75;96.53;98841.90;105885;1295;25544;-78
2023/02/27 06:13:44;;;;;;;15.10;5.80;;;;;;;2.74;96.34;98843.94;106017;1294;22813;-78
2023/02/27 06:16:16;;;;;;;18.30;6.00;;;;;;;2.73;96.19;98848.73;106320;1295;22559;-78
2023/02/27 06:18:44;;;;;;;14.60;5.40;;;;;;;2.71;95.85;98851.64;106965;1294;22558;-78
2023/02/27 06:21:13;;;;;;;12.70;5.50;;;;;;;2.67;96.33;98853.86;106408;1289;22699;-80
2023/02/27 06:23:49;;;;;;;14.70;6.10;;;;;;;2.66;96.55;98857.45;105940;1290;22568;-77
2023/02/27 06:26:24;;;;;;;11.40;5.40;;;;;;;2.66;96.41;98861.21;106156;1289;25977;-78
2023/02/27 06:28:56;;;;;;;11.30;5.50;;;;;;;2.66;96.75;98866.84;106126;1283;22581;-79
2023/02/27 06:31:30;;;;;;;10.10;4.90;;;;;;;2.69;96.12;98870.98;106044;1289;23942;-78
2023/02/27 06:34:01;;;;;;;14.20;5.30;;;;;;;2.69;96.53;98874.73;106222;1289;22561;-79
2023/02/27 06:36:38;;;;;;;11.50;5.70;;;;;;;2.69;96.97;98878.50;106209;1289;22548;-78
2023/02/27 06:39:13;;;;;;;10.30;5.40;;;;;;;2.73;96.98;98881.26;106163;1294;22663;-78
2023/02/27 06:41:45;;;;;;;10.00;4.50;;;;;;;2.75;96.81;98889.64;106171;1294;23628;-78
2023/02/27 06:44:19;;;;;;;8.10;4.50;;;;;;;2.73;96.83;98888.60;106360;1289;22570;-79
2023/02/27 06:46:57;;;;;;;8.80;4.50;;;;;;;2.74;97.11;98895.29;106405;1289;27468;-78
2023/02/27 06:49:26;;;;;;;8.40;3.90;;;;;;;2.75;96.70;98899.23;106497;1293;23388;-78
2023/02/27 06:52:05;;;;;;;9.00;4.30;;;;;;;2.73;96.80;98903.67;106240;1289;22583;-79
2023/02/27 06:54:36;;;;;;;9.70;4.70;;;;;;;2.72;96.62;98909.48;106434;1289;25153;-78
2023/02/27 06:57:10;;;;;;;6.50;3.40;;;;;;;2.66;96.74;98913.23;106209;1282;22530;-78
2023/02/27 06:59:44;;;;;;;8.90;4.30;;;;;;;2.65;96.96;98919.91;106131;1289;22529;-78
2023/02/27 07:02:16;;;;;;;7.50;4.10;;;;;;;2.67;96.61;98931.05;106200;1294;25346;-77
2023/02/27 07:04:51;;;;;;;7.50;3.60;;;;;;;2.60;97.09;98932.88;106245;1284;25563;-78
2023/02/27 07:07:33;;;;;;;10.50;4.90;;;;;;;2.59;97.23;98933.55;106406;1286;25364;-79
2023/02/27 07:10:14;;;;;;;9.10;4.30;;;;;;;2.55;97.28;98941.92;106537;1293;24266;-79
2023/02/27 07:12:53;;;;;;;10.90;4.80;;;;;;;2.54;97.17;98945.34;106633;1292;23333;-79
2023/02/27 07:15:43;;;;;;;13.50;5.10;;;;;;;2.54;97.55;98947.91;107512;1289;23513;-86
2023/02/27 07:18:48;;;;;;;11.90;4.90;;;;;;;2.56;97.20;98952.71;109674;1287;22185;-88
2023/02/27 07:21:44;;;;;;;;;;;;;;;;;;;;;
2023/02/27 07:25:19;;;;;;;;;;;;;;;;;;;;;
2023/02/27 07:32:15;;;;;;;;;;;;;;;;;;;;;
2023/02/27 07:39:03;;;;;;;;;;;;;;;;;;;;;
2023/02/27 07:42:45;;;;;;;;;;;;;;;;;;;;;
2023/02/27 07:45:55;;;;;;;3.20;1.90;;;;;;;2.52;96.88;98989.98;109155;1280;22530;-79
2023/02/27 07:48:35;;;;;;;3.20;2.00;;;;;;;2.52;96.79;98997.35;108810;1290;22530;-78
2023/02/27 07:51:29;;;;;;;4.50;2.30;;;;;;;2.46;97.12;99009.12;108631;1290;22219;-79
2023/02/27 07:54:41;;;;;;;4.90;2.50;;;;;;;2.44;97.40;99010.48;108974;1289;22486;-79
2023/02/27 07:57:28;;;;;;;5.00;2.90;;;;;;;2.45;97.75;99018.88;108974;1276;22438;-79
2023/02/27 08:00:08;;;;;;;7.30;3.20;;;;;;;2.48;97.52;99020.75;109270;1289;22275;-83
2023/02/27 08:02:47;;;;;;;9.50;3.10;;;;;;;2.50;97.71;99027.62;109156;1289;22800;31
2023/02/27 08:05:26;;;;;;;6.10;3.10;;;;;;;2.56;97.77;99030.06;108844;1295;22169;-79
2023/02/27 08:08:05;;;;;;;6.10;2.70;;;;;;;2.58;97.93;99035.20;108744;1295;22253;-79
2023/02/27 08:10:42;;;;;;;6.10;3.10;;;;;;;2.63;98.12;99034.20;108966;1282;22362;-78
2023/02/27 08:13:13;;;;;;;7.50;2.80;;;;;;;2.69;97.87;99038.16;109107;1289;22209;-77
2023/02/27 08:15:47;;;;;;;5.70;2.40;;;;;;;2.75;98.09;99043.50;108878;1295;23327;-80
2023/02/27 08:18:25;;;;;;;11.30;3.00;;;;;;;2.83;97.87;99042.86;109141;1264;22522;-83
2023/02/27 08:21:20;;;;;;;;;;;;;;;;;;;;;
2023/02/27 08:24:06;;;;;;;9.60;3.30;;;;;;;2.99;97.84;99049.28;109418;1288;22192;-81
2023/02/27 08:26:45;;;;;;;6.30;3.00;;;;;;;3.05;97.83;99052.91;109192;1295;22331;-82
2023/02/27 08:29:31;;;;;;;7.30;3.30;;;;;;;3.12;97.62;99054.48;109049;1295;23404;-82
2023/02/27 08:32:20;;;;;;;9.70;3.80;;;;;;;3.15;97.45;99063.55;109096;1288;22135;-81
2023/02/27 08:35:40;;;;;;;6.30;3.00;;;;;;;3.22;97.19;99067.70;109263;1294;22221;-83
2023/02/27 08:38:48;;;;;;;10.10;3.20;;;;;;;3.23;97.34;99067.53;109398;1294;22198;-84
2023/02/27 08:41:50;;;;;;;7.70;2.80;;;;;;;3.31;97.43;99071.17;109466;1295;22212;-84
2023/02/27 08:44:33;;;;;;;8.20;3.10;;;;;;;3.40;97.21;99073.25;109320;1295;22330;-82
2023/02/27 08:47:04;;;;;;;5.20;2.50;;;;;;;3.42;97.02;99079.59;109014;1295;22199;-80
2023/02/27 08:49:39;;;;;;;4.10;2.30;;;;;;;3.50;97.00;99082.88;109534;1289;22255;-81
2023/02/27 08:52:11;;;;;;;4.80;2.20;;;;;;;3.64;96.66;99087.20;109398;1287;21957;-81
2023/02/27 08:54:43;;;;;;;4.50;2.10;;;;;;;3.68;96.59;99090.47;109371;1296;22265;-84
2023/02/27 08:57:11;;;;;;;5.60;3.30;;;;;;;3.78;96.21;99099.77;108995;1295;22188;-82
2023/02/27 08:59:46;;;;;;;6.20;2.30;;;;;;;3.83;95.56;99102.00;109004;1295;22913;-82
2023/02/27 09:02:18;;;;;;;5.00;2.40;;;;;;;3.81;94.99;99109.89;109454;1295;22260;-80
2023/02/27 09:04:52;;;;;;;6.70;2.50;;;;;;;3.73;94.03;99112.42;109120;1291;22163;-84
2023/02/27 09:07:49;;;;;;;3.90;2.20;;;;;;;3.75;93.94;99111.58;109045;1276;23030;-88
2023/02/27 09:10:25;;;;;;;5.90;3.00;;;;;;;3.80;94.24;99120.16;109132;1273;22167;-82
2023/02/27 09:13:31;;;;;;;;;;;;;;;;;;;;;
2023/02/27 09:16:32;;;;;;;5.20;2.80;;;;;;;3.80;93.94;99127.70;109634;1293;21933;-91
2023/02/27 09:19:27;;;;;;;7.30;2.40;;;;;;;3.83;94.32;99131.31;109254;1266;22183;-89
2023/02/27 09:22:45;;;;;;;5.80;2.40;;;;;;;3.97;94.01;99123.80;109277;1274;22306;31
2023/02/27 09:26:12;;;;;;;;;;;;;;;;;;;;;
2023/02/27 09:29:48;;;;;;;3.80;2.20;;;;;;;4.33;93.54;99131.05;109596;1268;22296;31
2023/02/27 09:33:32;;;;;;;;;;;;;;;;;;;;;
2023/02/27 09:36:42;;;;;;;4.00;2.00;;;;;;;4.70;91.72;99131.21;109371;1270;21981;-89
2023/02/27 09:39:57;;;;;;;5.10;2.50;;;;;;;4.97;91.61;99128.25;109304;1270;22423;31
2023/02/27 09:44:00;;;;;;;;;;;;;;;;;;;;;
2023/02/27 10:01:19;;;;;;;2.80;1.50;;;;;;;6.10;83.12;99147.61;108736;1295;22201;-80
2023/02/27 10:04:12;;;;;;;6.70;1.40;;;;;;;6.14;83.53;99156.54;108855;1300;22131;-84
2023/02/27 10:07:27;;;;;;;3.10;1.50;;;;;;;6.24;83.74;99161.29;108924;1294;22219;-87
2023/02/27 10:10:35;;;;;;;4.50;1.80;;;;;;;6.23;82.37;99169.39;109274;1277;22215;-81
2023/02/27 10:14:09;;;;;;;5.60;1.80;;;;;;;6.27;83.15;99178.67;109201;1296;22197;-81
2023/02/27 10:17:01;;;;;;;11.00;1.30;;;;;;;6.32;81.52;99178.63;109340;1291;22170;-81
2023/02/27 10:23:18;;;;;;;8.50;2.30;;;;;;;6.24;80.90;99187.98;108885;1300;22248;-81
2023/02/27 10:25:58;;;;;;;5.60;1.90;;;;;;;6.15;79.51;99191.81;108583;1297;21968;-81
2023/02/27 10:29:00;;;;;;;;;;;;;;;6.06;79.26;99197.52;108925;1300;22433;-82
2023/02/27 10:35:56;;;;;;;4.50;1.10;;;;;;;6.23;80.24;99198.47;108998;1298;22295;-82
2023/02/27 10:38:57;;;;;;;6.00;1.30;;;;;;;6.27;78.73;99197.93;108917;1299;21966;-82
2023/02/27 10:41:35;;;;;;;3.90;1.00;;;;;;;6.32;77.20;99197.91;108779;1299;21982;-84
2023/02/27 10:44:34;;;;;;;2.40;1.00;;;;;;;6.30;75.63;99205.48;108934;1299;22185;-82
2023/02/27 10:47:24;;;;;;;1.50;1.20;;;;;;;6.36;76.44;99210.61;108977;1299;21971;-81
2023/02/27 10:50:39;;;;;;;2.00;1.20;;;;;;;6.42;76.82;99210.23;108973;1298;22156;-83
2023/02/27 10:53:33;;;;;;;2.60;1.40;;;;;;;6.44;75.39;99209.36;108997;1299;22115;-81
2023/02/27 11:14:50;;;;;;;3.60;1.50;;;;;;;6.35;73.66;99227.49;106460;1270;22501;-80
